sensor_id;sensor_type;location;lat;lon;timestamp;P1;durP1;ratioP1;P2;durP2;ratioP2
45338;SDS011;31071;51.478;5.710;2022-07-01T00:00:14;21.77;;;13.85;;
45338;SDS011;31071;51.478;5.710;2022-07-01T00:02:40;22.88;;;14.73;;
45338;SDS011;31071;51.478;5.710;2022-07-01T00:05:05;24.25;;;13.80;;
45338;SDS011;31071;51.478;5.710;2022-07-01T00:07:31;21.67;;;13.70;;
45338;SDS011;31071;51.478;5.710;2022-07-01T00:09:56;24.75;;;12.95;;
45338;SDS011;31071;51.478;5.710;2022-07-01T00:12:22;22.45;;;13.32;;
45338;SDS011;31071;51.478;5.710;2022-07-01T00:14:48;23.35;;;13.27;;
45338;SDS011;31071;51.478;5.710;2022-07-01T00:17:13;21.52;;;13.40;;
45338;SDS011;31071;51.478;5.710;2022-07-01T00:19:39;23.45;;;14.27;;
45338;SDS011;31071;51.478;5.710;2022-07-01T00:22:07;22.58;;;14.35;;
45338;SDS011;31071;51.478;5.710;2022-07-01T00:24:33;22.20;;;14.10;;
45338;SDS011;31071;51.478;5.710;2022-07-01T00:26:58;27.50;;;15.32;;
45338;SDS011;31071;51.478;5.710;2022-07-01T00:29:24;24.15;;;15.07;;
45338;SDS011;31071;51.478;5.710;2022-07-01T00:31:49;27.20;;;15.30;;
45338;SDS011;31071;51.478;5.710;2022-07-01T00:34:15;26.17;;;15.82;;
45338;SDS011;31071;51.478;5.710;2022-07-01T00:36:46;23.15;;;14.98;;
45338;SDS011;31071;51.478;5.710;2022-07-01T00:39:12;23.10;;;15.10;;
45338;SDS011;31071;51.478;5.710;2022-07-01T00:41:38;26.13;;;15.30;;
45338;SDS011;31071;51.478;5.710;2022-07-01T00:44:03;27.65;;;15.75;;
45338;SDS011;31071;51.478;5.710;2022-07-01T00:46:29;22.23;;;14.57;;
45338;SDS011;31071;51.478;5.710;2022-07-01T00:48:57;25.77;;;15.90;;
45338;SDS011;31071;51.478;5.710;2022-07-01T00:51:23;26.58;;;15.30;;
45338;SDS011;31071;51.478;5.710;2022-07-01T00:53:49;26.63;;;15.55;;
45338;SDS011;31071;51.478;5.710;2022-07-01T00:56:20;24.77;;;15.13;;
45338;SDS011;31071;51.478;5.710;2022-07-01T00:58:45;26.60;;;15.63;;
45338;SDS011;31071;51.478;5.710;2022-07-01T01:01:11;24.27;;;15.88;;
45338;SDS011;31071;51.478;5.710;2022-07-01T01:03:37;28.05;;;15.20;;
45338;SDS011;31071;51.478;5.710;2022-07-01T01:06:03;25.25;;;15.98;;
45338;SDS011;31071;51.478;5.710;2022-07-01T01:08:28;25.00;;;15.55;;
45338;SDS011;31071;51.478;5.710;2022-07-01T01:10:54;24.50;;;15.68;;
45338;SDS011;31071;51.478;5.710;2022-07-01T01:13:20;23.10;;;15.80;;
45338;SDS011;31071;51.478;5.710;2022-07-01T01:15:46;25.85;;;16.05;;
45338;SDS011;31071;51.478;5.710;2022-07-01T01:18:12;25.83;;;15.77;;
45338;SDS011;31071;51.478;5.710;2022-07-01T01:20:37;29.25;;;16.55;;
45338;SDS011;31071;51.478;5.710;2022-07-01T01:23:03;28.95;;;16.60;;
45338;SDS011;31071;51.478;5.710;2022-07-01T01:25:30;27.05;;;15.52;;
45338;SDS011;31071;51.478;5.710;2022-07-01T01:27:57;29.67;;;16.42;;
45338;SDS011;31071;51.478;5.710;2022-07-01T01:30:22;27.05;;;15.52;;
45338;SDS011;31071;51.478;5.710;2022-07-01T01:32:48;31.23;;;15.02;;
45338;SDS011;31071;51.478;5.710;2022-07-01T01:35:14;30.17;;;16.60;;
45338;SDS011;31071;51.478;5.710;2022-07-01T01:37:40;35.38;;;16.50;;
45338;SDS011;31071;51.478;5.710;2022-07-01T01:40:06;37.85;;;16.65;;
45338;SDS011;31071;51.478;5.710;2022-07-01T01:42:32;32.53;;;17.30;;
45338;SDS011;31071;51.478;5.710;2022-07-01T01:44:58;35.20;;;17.75;;
45338;SDS011;31071;51.478;5.710;2022-07-01T01:47:24;31.17;;;16.98;;
45338;SDS011;31071;51.478;5.710;2022-07-01T01:49:49;35.97;;;18.65;;
45338;SDS011;31071;51.478;5.710;2022-07-01T01:52:15;37.55;;;18.67;;
45338;SDS011;31071;51.478;5.710;2022-07-01T01:54:40;38.30;;;18.55;;
45338;SDS011;31071;51.478;5.710;2022-07-01T01:57:06;37.80;;;18.60;;
45338;SDS011;31071;51.478;5.710;2022-07-01T01:59:31;40.95;;;19.10;;
45338;SDS011;31071;51.478;5.710;2022-07-01T02:01:57;35.30;;;18.92;;
45338;SDS011;31071;51.478;5.710;2022-07-01T02:04:23;36.53;;;18.48;;
45338;SDS011;31071;51.478;5.710;2022-07-01T02:06:55;37.88;;;18.15;;
45338;SDS011;31071;51.478;5.710;2022-07-01T02:09:20;35.13;;;18.35;;
45338;SDS011;31071;51.478;5.710;2022-07-01T02:11:46;38.65;;;18.63;;
45338;SDS011;31071;51.478;5.710;2022-07-01T02:14:11;39.72;;;19.73;;
45338;SDS011;31071;51.478;5.710;2022-07-01T02:16:37;37.70;;;19.88;;
45338;SDS011;31071;51.478;5.710;2022-07-01T02:19:02;42.70;;;21.10;;
45338;SDS011;31071;51.478;5.710;2022-07-01T02:21:28;36.45;;;21.02;;
45338;SDS011;31071;51.478;5.710;2022-07-01T02:23:54;36.88;;;21.33;;
45338;SDS011;31071;51.478;5.710;2022-07-01T02:26:26;36.47;;;20.70;;
45338;SDS011;31071;51.478;5.710;2022-07-01T02:28:51;42.33;;;22.05;;
45338;SDS011;31071;51.478;5.710;2022-07-01T02:31:17;35.65;;;20.80;;
45338;SDS011;31071;51.478;5.710;2022-07-01T02:33:42;37.88;;;20.75;;
45338;SDS011;31071;51.478;5.710;2022-07-01T02:36:08;36.10;;;20.30;;
45338;SDS011;31071;51.478;5.710;2022-07-01T02:38:34;35.90;;;20.73;;
45338;SDS011;31071;51.478;5.710;2022-07-01T02:40:59;37.10;;;19.98;;
45338;SDS011;31071;51.478;5.710;2022-07-01T02:43:25;31.88;;;19.67;;
45338;SDS011;31071;51.478;5.710;2022-07-01T02:45:51;33.47;;;20.10;;
45338;SDS011;31071;51.478;5.710;2022-07-01T02:48:16;36.30;;;19.70;;
45338;SDS011;31071;51.478;5.710;2022-07-01T02:50:42;32.47;;;19.50;;
45338;SDS011;31071;51.478;5.710;2022-07-01T02:53:13;36.10;;;20.38;;
45338;SDS011;31071;51.478;5.710;2022-07-01T02:55:39;32.25;;;19.77;;
45338;SDS011;31071;51.478;5.710;2022-07-01T02:58:08;36.28;;;19.48;;
45338;SDS011;31071;51.478;5.710;2022-07-01T03:00:33;33.83;;;19.45;;
45338;SDS011;31071;51.478;5.710;2022-07-01T03:02:59;37.28;;;19.85;;
45338;SDS011;31071;51.478;5.710;2022-07-01T03:05:25;34.28;;;20.60;;
45338;SDS011;31071;51.478;5.710;2022-07-01T03:07:51;35.03;;;20.58;;
45338;SDS011;31071;51.478;5.710;2022-07-01T03:10:16;34.70;;;18.63;;
45338;SDS011;31071;51.478;5.710;2022-07-01T03:12:42;32.85;;;19.50;;
45338;SDS011;31071;51.478;5.710;2022-07-01T03:15:12;34.67;;;19.98;;
45338;SDS011;31071;51.478;5.710;2022-07-01T03:17:39;37.80;;;19.55;;
45338;SDS011;31071;51.478;5.710;2022-07-01T03:20:06;37.63;;;20.52;;
45338;SDS011;31071;51.478;5.710;2022-07-01T03:22:34;33.08;;;19.13;;
45338;SDS011;31071;51.478;5.710;2022-07-01T03:25:00;32.60;;;19.02;;
45338;SDS011;31071;51.478;5.710;2022-07-01T03:27:28;30.88;;;19.83;;
45338;SDS011;31071;51.478;5.710;2022-07-01T03:29:53;29.42;;;17.75;;
45338;SDS011;31071;51.478;5.710;2022-07-01T03:32:19;31.58;;;19.27;;
45338;SDS011;31071;51.478;5.710;2022-07-01T03:34:45;29.40;;;18.13;;
45338;SDS011;31071;51.478;5.710;2022-07-01T03:37:14;28.33;;;18.10;;
45338;SDS011;31071;51.478;5.710;2022-07-01T03:39:40;30.10;;;18.23;;
45338;SDS011;31071;51.478;5.710;2022-07-01T03:42:07;32.67;;;17.88;;
45338;SDS011;31071;51.478;5.710;2022-07-01T03:44:34;34.97;;;18.92;;
45338;SDS011;31071;51.478;5.710;2022-07-01T03:47:00;30.42;;;17.42;;
45338;SDS011;31071;51.478;5.710;2022-07-01T03:49:27;27.08;;;17.35;;
45338;SDS011;31071;51.478;5.710;2022-07-01T03:51:53;35.38;;;18.70;;
45338;SDS011;31071;51.478;5.710;2022-07-01T03:54:18;28.98;;;18.17;;
45338;SDS011;31071;51.478;5.710;2022-07-01T03:59:30;29.30;;;18.67;;
45338;SDS011;31071;51.478;5.710;2022-07-01T04:01:57;34.70;;;18.95;;
45338;SDS011;31071;51.478;5.710;2022-07-01T04:04:23;34.42;;;18.70;;
45338;SDS011;31071;51.478;5.710;2022-07-01T04:06:51;32.75;;;19.10;;
45338;SDS011;31071;51.478;5.710;2022-07-01T04:09:18;36.08;;;19.52;;
45338;SDS011;31071;51.478;5.710;2022-07-01T04:11:45;34.03;;;18.42;;
45338;SDS011;31071;51.478;5.710;2022-07-01T04:14:13;32.55;;;19.13;;
45338;SDS011;31071;51.478;5.710;2022-07-01T04:16:46;34.88;;;18.83;;
45338;SDS011;31071;51.478;5.710;2022-07-01T04:21:40;31.13;;;18.88;;
45338;SDS011;31071;51.478;5.710;2022-07-01T04:24:24;32.67;;;17.40;;
45338;SDS011;31071;51.478;5.710;2022-07-01T04:26:51;28.52;;;18.00;;
45338;SDS011;31071;51.478;5.710;2022-07-01T04:29:17;29.83;;;17.60;;
45338;SDS011;31071;51.478;5.710;2022-07-01T04:31:44;30.40;;;18.30;;
45338;SDS011;31071;51.478;5.710;2022-07-01T04:34:10;36.35;;;20.13;;
45338;SDS011;31071;51.478;5.710;2022-07-01T04:36:36;31.67;;;18.77;;
45338;SDS011;31071;51.478;5.710;2022-07-01T04:39:02;32.30;;;19.08;;
45338;SDS011;31071;51.478;5.710;2022-07-01T04:41:29;31.83;;;18.98;;
45338;SDS011;31071;51.478;5.710;2022-07-01T04:44:14;36.17;;;19.65;;
45338;SDS011;31071;51.478;5.710;2022-07-01T04:46:40;33.97;;;18.45;;
45338;SDS011;31071;51.478;5.710;2022-07-01T04:49:06;33.88;;;20.33;;
45338;SDS011;31071;51.478;5.710;2022-07-01T04:51:32;26.13;;;18.55;;
45338;SDS011;31071;51.478;5.710;2022-07-01T04:54:00;30.48;;;19.38;;
45338;SDS011;31071;51.478;5.710;2022-07-01T04:56:27;32.97;;;20.00;;
45338;SDS011;31071;51.478;5.710;2022-07-01T04:58:54;30.85;;;19.20;;
45338;SDS011;31071;51.478;5.710;2022-07-01T05:01:20;29.00;;;18.73;;
45338;SDS011;31071;51.478;5.710;2022-07-01T05:03:45;29.95;;;18.33;;
45338;SDS011;31071;51.478;5.710;2022-07-01T05:06:20;30.33;;;17.15;;
45338;SDS011;31071;51.478;5.710;2022-07-01T05:08:46;28.92;;;17.38;;
45338;SDS011;31071;51.478;5.710;2022-07-01T05:11:11;25.58;;;16.63;;
45338;SDS011;31071;51.478;5.710;2022-07-01T05:13:37;26.83;;;16.58;;
45338;SDS011;31071;51.478;5.710;2022-07-01T05:16:04;22.30;;;14.93;;
45338;SDS011;31071;51.478;5.710;2022-07-01T05:18:30;25.50;;;15.18;;
45338;SDS011;31071;51.478;5.710;2022-07-01T05:21:14;26.23;;;15.73;;
45338;SDS011;31071;51.478;5.710;2022-07-01T05:23:59;27.63;;;15.15;;
45338;SDS011;31071;51.478;5.710;2022-07-01T05:28:55;21.58;;;13.50;;
45338;SDS011;31071;51.478;5.710;2022-07-01T05:31:21;21.80;;;13.40;;
45338;SDS011;31071;51.478;5.710;2022-07-01T05:33:47;23.80;;;12.68;;
45338;SDS011;31071;51.478;5.710;2022-07-01T05:36:13;24.25;;;14.15;;
45338;SDS011;31071;51.478;5.710;2022-07-01T05:38:39;19.10;;;13.63;;
45338;SDS011;31071;51.478;5.710;2022-07-01T05:41:05;23.17;;;14.15;;
45338;SDS011;31071;51.478;5.710;2022-07-01T05:43:31;18.95;;;12.52;;
45338;SDS011;31071;51.478;5.710;2022-07-01T05:45:56;20.60;;;12.48;;
45338;SDS011;31071;51.478;5.710;2022-07-01T05:48:22;18.73;;;11.88;;
45338;SDS011;31071;51.478;5.710;2022-07-01T05:50:54;18.33;;;11.85;;
45338;SDS011;31071;51.478;5.710;2022-07-01T05:53:20;21.30;;;12.55;;
45338;SDS011;31071;51.478;5.710;2022-07-01T05:55:52;17.83;;;11.82;;
45338;SDS011;31071;51.478;5.710;2022-07-01T05:58:20;16.75;;;11.13;;
45338;SDS011;31071;51.478;5.710;2022-07-01T06:00:48;17.77;;;12.05;;
45338;SDS011;31071;51.478;5.710;2022-07-01T06:03:15;19.65;;;12.75;;
45338;SDS011;31071;51.478;5.710;2022-07-01T06:05:41;17.60;;;12.40;;
45338;SDS011;31071;51.478;5.710;2022-07-01T06:08:07;20.83;;;12.80;;
45338;SDS011;31071;51.478;5.710;2022-07-01T06:10:33;20.00;;;13.00;;
45338;SDS011;31071;51.478;5.710;2022-07-01T06:12:59;18.98;;;12.30;;
45338;SDS011;31071;51.478;5.710;2022-07-01T06:15:25;17.00;;;12.65;;
45338;SDS011;31071;51.478;5.710;2022-07-01T06:17:51;23.05;;;12.55;;
45338;SDS011;31071;51.478;5.710;2022-07-01T06:20:18;21.40;;;12.90;;
45338;SDS011;31071;51.478;5.710;2022-07-01T06:22:44;20.52;;;12.57;;
45338;SDS011;31071;51.478;5.710;2022-07-01T06:25:09;22.67;;;12.85;;
45338;SDS011;31071;51.478;5.710;2022-07-01T06:27:42;18.85;;;12.63;;
45338;SDS011;31071;51.478;5.710;2022-07-01T06:32:35;18.85;;;11.07;;
45338;SDS011;31071;51.478;5.710;2022-07-01T06:35:01;15.60;;;9.70;;
45338;SDS011;31071;51.478;5.710;2022-07-01T06:37:27;13.10;;;9.50;;
45338;SDS011;31071;51.478;5.710;2022-07-01T06:39:56;17.17;;;9.85;;
45338;SDS011;31071;51.478;5.710;2022-07-01T06:42:21;17.10;;;9.07;;
45338;SDS011;31071;51.478;5.710;2022-07-01T06:44:48;11.02;;;8.48;;
45338;SDS011;31071;51.478;5.710;2022-07-01T06:47:13;18.50;;;9.52;;
45338;SDS011;31071;51.478;5.710;2022-07-01T06:49:39;13.68;;;9.32;;
45338;SDS011;31071;51.478;5.710;2022-07-01T06:52:04;11.32;;;8.43;;
45338;SDS011;31071;51.478;5.710;2022-07-01T06:54:30;14.30;;;8.73;;
45338;SDS011;31071;51.478;5.710;2022-07-01T06:56:56;14.82;;;8.38;;
45338;SDS011;31071;51.478;5.710;2022-07-01T06:59:21;17.60;;;8.55;;
45338;SDS011;31071;51.478;5.710;2022-07-01T07:01:47;16.75;;;7.57;;
45338;SDS011;31071;51.478;5.710;2022-07-01T07:04:14;14.00;;;7.20;;
45338;SDS011;31071;51.478;5.710;2022-07-01T07:06:40;13.60;;;6.82;;
45338;SDS011;31071;51.478;5.710;2022-07-01T07:09:05;10.85;;;6.60;;
45338;SDS011;31071;51.478;5.710;2022-07-01T07:11:31;10.45;;;5.68;;
45338;SDS011;31071;51.478;5.710;2022-07-01T07:13:56;9.20;;;5.07;;
45338;SDS011;31071;51.478;5.710;2022-07-01T07:16:22;7.60;;;4.63;;
45338;SDS011;31071;51.478;5.710;2022-07-01T07:18:48;9.02;;;4.68;;
45338;SDS011;31071;51.478;5.710;2022-07-01T07:21:16;10.52;;;4.80;;
45338;SDS011;31071;51.478;5.710;2022-07-01T07:23:42;11.63;;;4.65;;
45338;SDS011;31071;51.478;5.710;2022-07-01T07:26:08;6.10;;;3.70;;
45338;SDS011;31071;51.478;5.710;2022-07-01T07:28:33;5.43;;;2.92;;
45338;SDS011;31071;51.478;5.710;2022-07-01T07:30:59;6.15;;;3.55;;
45338;SDS011;31071;51.478;5.710;2022-07-01T07:33:24;10.50;;;3.40;;
45338;SDS011;31071;51.478;5.710;2022-07-01T07:35:50;8.25;;;2.53;;
45338;SDS011;31071;51.478;5.710;2022-07-01T07:38:16;6.32;;;2.33;;
45338;SDS011;31071;51.478;5.710;2022-07-01T07:40:41;8.18;;;3.17;;
45338;SDS011;31071;51.478;5.710;2022-07-01T07:43:07;6.05;;;2.42;;
45338;SDS011;31071;51.478;5.710;2022-07-01T07:45:33;3.20;;;2.33;;
45338;SDS011;31071;51.478;5.710;2022-07-01T07:47:59;6.78;;;2.83;;
45338;SDS011;31071;51.478;5.710;2022-07-01T07:50:25;4.85;;;2.90;;
45338;SDS011;31071;51.478;5.710;2022-07-01T07:52:51;7.00;;;3.17;;
45338;SDS011;31071;51.478;5.710;2022-07-01T07:55:17;6.38;;;3.33;;
45338;SDS011;31071;51.478;5.710;2022-07-01T07:57:42;7.63;;;3.35;;
45338;SDS011;31071;51.478;5.710;2022-07-01T08:00:09;6.75;;;3.20;;
45338;SDS011;31071;51.478;5.710;2022-07-01T08:02:36;5.05;;;2.95;;
45338;SDS011;31071;51.478;5.710;2022-07-01T08:05:03;5.13;;;2.65;;
45338;SDS011;31071;51.478;5.710;2022-07-01T08:07:28;8.38;;;2.90;;
45338;SDS011;31071;51.478;5.710;2022-07-01T08:09:54;8.23;;;2.70;;
45338;SDS011;31071;51.478;5.710;2022-07-01T08:12:20;11.10;;;2.97;;
45338;SDS011;31071;51.478;5.710;2022-07-01T08:14:47;7.65;;;2.67;;
45338;SDS011;31071;51.478;5.710;2022-07-01T08:17:12;4.70;;;2.30;;
45338;SDS011;31071;51.478;5.710;2022-07-01T08:19:38;3.03;;;1.50;;
45338;SDS011;31071;51.478;5.710;2022-07-01T08:22:03;4.82;;;1.95;;
45338;SDS011;31071;51.478;5.710;2022-07-01T08:24:29;2.97;;;1.50;;
45338;SDS011;31071;51.478;5.710;2022-07-01T08:26:55;3.83;;;1.33;;
45338;SDS011;31071;51.478;5.710;2022-07-01T08:29:20;3.17;;;1.30;;
45338;SDS011;31071;51.478;5.710;2022-07-01T08:31:46;2.65;;;1.40;;
45338;SDS011;31071;51.478;5.710;2022-07-01T08:34:12;3.65;;;1.75;;
45338;SDS011;31071;51.478;5.710;2022-07-01T08:36:37;2.13;;;1.23;;
45338;SDS011;31071;51.478;5.710;2022-07-01T08:39:03;2.80;;;1.65;;
45338;SDS011;31071;51.478;5.710;2022-07-01T08:41:29;4.60;;;1.52;;
45338;SDS011;31071;51.478;5.710;2022-07-01T08:43:55;2.78;;;1.23;;
45338;SDS011;31071;51.478;5.710;2022-07-01T08:46:24;3.22;;;1.40;;
45338;SDS011;31071;51.478;5.710;2022-07-01T08:48:51;2.70;;;1.23;;
45338;SDS011;31071;51.478;5.710;2022-07-01T08:51:16;2.08;;;1.00;;
45338;SDS011;31071;51.478;5.710;2022-07-01T08:53:42;2.22;;;1.00;;
45338;SDS011;31071;51.478;5.710;2022-07-01T08:56:07;2.10;;;1.00;;
45338;SDS011;31071;51.478;5.710;2022-07-01T08:58:52;1.38;;;0.77;;
45338;SDS011;31071;51.478;5.710;2022-07-01T09:01:18;4.38;;;0.82;;
45338;SDS011;31071;51.478;5.710;2022-07-01T09:03:48;2.83;;;0.98;;
45338;SDS011;31071;51.478;5.710;2022-07-01T09:06:21;3.33;;;0.80;;
45338;SDS011;31071;51.478;5.710;2022-07-01T09:08:50;1.38;;;0.65;;
45338;SDS011;31071;51.478;5.710;2022-07-01T09:11:20;1.67;;;0.90;;
45338;SDS011;31071;51.478;5.710;2022-07-01T09:16:39;1.85;;;0.90;;
45338;SDS011;31071;51.478;5.710;2022-07-01T09:19:05;1.20;;;0.93;;
45338;SDS011;31071;51.478;5.710;2022-07-01T09:21:31;3.40;;;0.82;;
45338;SDS011;31071;51.478;5.710;2022-07-01T09:23:58;2.15;;;0.90;;
45338;SDS011;31071;51.478;5.710;2022-07-01T09:26:28;2.55;;;0.80;;
45338;SDS011;31071;51.478;5.710;2022-07-01T09:28:54;5.13;;;0.77;;
45338;SDS011;31071;51.478;5.710;2022-07-01T09:31:21;1.98;;;0.90;;
45338;SDS011;31071;51.478;5.710;2022-07-01T09:34:04;3.10;;;0.77;;
45338;SDS011;31071;51.478;5.710;2022-07-01T09:36:33;3.08;;;0.85;;
45338;SDS011;31071;51.478;5.710;2022-07-01T09:39:04;3.33;;;0.75;;
45338;SDS011;31071;51.478;5.710;2022-07-01T09:41:35;1.20;;;0.65;;
45338;SDS011;31071;51.478;5.710;2022-07-01T09:44:05;4.25;;;0.95;;
45338;SDS011;31071;51.478;5.710;2022-07-01T09:46:32;3.03;;;0.98;;
45338;SDS011;31071;51.478;5.710;2022-07-01T09:48:58;3.72;;;1.08;;
45338;SDS011;31071;51.478;5.710;2022-07-01T09:51:24;1.95;;;1.00;;
45338;SDS011;31071;51.478;5.710;2022-07-01T09:53:49;3.78;;;1.00;;
45338;SDS011;31071;51.478;5.710;2022-07-01T09:56:22;3.38;;;1.10;;
45338;SDS011;31071;51.478;5.710;2022-07-01T09:58:48;4.40;;;1.15;;
45338;SDS011;31071;51.478;5.710;2022-07-01T10:01:14;3.30;;;1.00;;
45338;SDS011;31071;51.478;5.710;2022-07-01T10:03:40;2.45;;;0.82;;
45338;SDS011;31071;51.478;5.710;2022-07-01T10:08:55;2.55;;;1.17;;
45338;SDS011;31071;51.478;5.710;2022-07-01T10:11:37;4.57;;;0.90;;
45338;SDS011;31071;51.478;5.710;2022-07-01T10:14:26;4.57;;;0.88;;
45338;SDS011;31071;51.478;5.710;2022-07-01T10:16:56;1.55;;;0.80;;
45338;SDS011;31071;51.478;5.710;2022-07-01T10:19:29;2.90;;;0.85;;
45338;SDS011;31071;51.478;5.710;2022-07-01T10:21:58;4.80;;;0.80;;
45338;SDS011;31071;51.478;5.710;2022-07-01T10:24:45;1.38;;;0.70;;
45338;SDS011;31071;51.478;5.710;2022-07-01T10:27:19;4.78;;;0.80;;
45338;SDS011;31071;51.478;5.710;2022-07-01T10:29:46;2.03;;;0.88;;
45338;SDS011;31071;51.478;5.710;2022-07-01T10:34:47;2.67;;;0.90;;
45338;SDS011;31071;51.478;5.710;2022-07-01T10:37:13;2.47;;;0.80;;
45338;SDS011;31071;51.478;5.710;2022-07-01T10:42:33;5.13;;;0.90;;
45338;SDS011;31071;51.478;5.710;2022-07-01T10:45:09;4.50;;;0.80;;
45338;SDS011;31071;51.478;5.710;2022-07-01T10:50:06;1.90;;;0.80;;
45338;SDS011;31071;51.478;5.710;2022-07-01T10:52:33;2.45;;;0.70;;
45338;SDS011;31071;51.478;5.710;2022-07-01T10:55:00;5.10;;;0.75;;
45338;SDS011;31071;51.478;5.710;2022-07-01T11:02:26;5.15;;;0.63;;
45338;SDS011;31071;51.478;5.710;2022-07-01T11:04:55;2.42;;;0.60;;
45338;SDS011;31071;51.478;5.710;2022-07-01T11:07:23;3.00;;;0.80;;
45338;SDS011;31071;51.478;5.710;2022-07-01T11:09:50;2.58;;;0.68;;
45338;SDS011;31071;51.478;5.710;2022-07-01T11:12:16;3.40;;;0.70;;
45338;SDS011;31071;51.478;5.710;2022-07-01T11:14:42;4.03;;;0.85;;
45338;SDS011;31071;51.478;5.710;2022-07-01T11:17:08;2.10;;;0.77;;
45338;SDS011;31071;51.478;5.710;2022-07-01T11:19:35;1.98;;;0.60;;
45338;SDS011;31071;51.478;5.710;2022-07-01T11:22:01;2.85;;;0.60;;
45338;SDS011;31071;51.478;5.710;2022-07-01T11:24:28;1.42;;;0.50;;
45338;SDS011;31071;51.478;5.710;2022-07-01T11:27:08;2.15;;;0.70;;
45338;SDS011;31071;51.478;5.710;2022-07-01T11:29:34;2.67;;;0.43;;
45338;SDS011;31071;51.478;5.710;2022-07-01T11:32:00;3.28;;;0.70;;
45338;SDS011;31071;51.478;5.710;2022-07-01T11:34:29;2.78;;;0.75;;
45338;SDS011;31071;51.478;5.710;2022-07-01T11:36:58;3.17;;;1.05;;
45338;SDS011;31071;51.478;5.710;2022-07-01T11:39:46;3.97;;;0.63;;
45338;SDS011;31071;51.478;5.710;2022-07-01T11:42:12;2.58;;;0.60;;
45338;SDS011;31071;51.478;5.710;2022-07-01T11:44:42;3.78;;;0.60;;
45338;SDS011;31071;51.478;5.710;2022-07-01T11:47:21;1.38;;;0.40;;
45338;SDS011;31071;51.478;5.710;2022-07-01T11:49:49;1.85;;;0.60;;
45338;SDS011;31071;51.478;5.710;2022-07-01T11:52:18;1.95;;;0.55;;
45338;SDS011;31071;51.478;5.710;2022-07-01T11:54:45;2.25;;;0.65;;
45338;SDS011;31071;51.478;5.710;2022-07-01T11:57:13;2.75;;;0.70;;
45338;SDS011;31071;51.478;5.710;2022-07-01T11:59:41;2.85;;;0.50;;
45338;SDS011;31071;51.478;5.710;2022-07-01T12:02:08;2.17;;;0.77;;
45338;SDS011;31071;51.478;5.710;2022-07-01T12:04:36;1.92;;;0.60;;
45338;SDS011;31071;51.478;5.710;2022-07-01T12:07:05;3.42;;;0.75;;
45338;SDS011;31071;51.478;5.710;2022-07-01T12:09:32;1.90;;;0.70;;
45338;SDS011;31071;51.478;5.710;2022-07-01T12:11:58;2.53;;;0.60;;
45338;SDS011;31071;51.478;5.710;2022-07-01T12:14:25;4.50;;;0.70;;
45338;SDS011;31071;51.478;5.710;2022-07-01T12:16:54;4.32;;;0.80;;
45338;SDS011;31071;51.478;5.710;2022-07-01T12:22:03;3.13;;;0.80;;
45338;SDS011;31071;51.478;5.710;2022-07-01T12:24:31;2.25;;;0.60;;
45338;SDS011;31071;51.478;5.710;2022-07-01T12:29:23;2.60;;;0.65;;
45338;SDS011;31071;51.478;5.710;2022-07-01T12:31:55;1.63;;;0.70;;
45338;SDS011;31071;51.478;5.710;2022-07-01T12:34:22;2.20;;;0.60;;
45338;SDS011;31071;51.478;5.710;2022-07-01T12:37:00;2.13;;;0.75;;
45338;SDS011;31071;51.478;5.710;2022-07-01T12:39:26;3.58;;;0.90;;
45338;SDS011;31071;51.478;5.710;2022-07-01T12:41:53;1.95;;;0.60;;
45338;SDS011;31071;51.478;5.710;2022-07-01T12:44:22;1.23;;;0.73;;
45338;SDS011;31071;51.478;5.710;2022-07-01T12:46:51;2.67;;;0.70;;
45338;SDS011;31071;51.478;5.710;2022-07-01T12:49:23;2.97;;;0.90;;
45338;SDS011;31071;51.478;5.710;2022-07-01T12:51:50;1.40;;;0.60;;
45338;SDS011;31071;51.478;5.710;2022-07-01T12:57:00;3.75;;;0.60;;
45338;SDS011;31071;51.478;5.710;2022-07-01T12:59:26;1.00;;;0.63;;
45338;SDS011;31071;51.478;5.710;2022-07-01T13:01:52;3.42;;;0.98;;
45338;SDS011;31071;51.478;5.710;2022-07-01T13:04:25;3.05;;;0.88;;
45338;SDS011;31071;51.478;5.710;2022-07-01T13:09:17;3.42;;;0.80;;
45338;SDS011;31071;51.478;5.710;2022-07-01T13:11:42;2.92;;;0.80;;
45338;SDS011;31071;51.478;5.710;2022-07-01T13:14:08;1.52;;;0.60;;
45338;SDS011;31071;51.478;5.710;2022-07-01T13:16:36;1.23;;;1.05;;
45338;SDS011;31071;51.478;5.710;2022-07-01T13:19:01;3.45;;;0.93;;
45338;SDS011;31071;51.478;5.710;2022-07-01T13:21:27;5.10;;;0.80;;
45338;SDS011;31071;51.478;5.710;2022-07-01T13:23:54;4.80;;;0.90;;
45338;SDS011;31071;51.478;5.710;2022-07-01T13:26:20;1.95;;;0.70;;
45338;SDS011;31071;51.478;5.710;2022-07-01T13:28:46;3.33;;;0.70;;
45338;SDS011;31071;51.478;5.710;2022-07-01T13:31:11;2.35;;;0.60;;
45338;SDS011;31071;51.478;5.710;2022-07-01T13:33:37;4.07;;;0.80;;
45338;SDS011;31071;51.478;5.710;2022-07-01T13:36:03;1.17;;;0.63;;
45338;SDS011;31071;51.478;5.710;2022-07-01T13:38:29;2.13;;;0.73;;
45338;SDS011;31071;51.478;5.710;2022-07-01T13:40:55;2.80;;;0.70;;
45338;SDS011;31071;51.478;5.710;2022-07-01T13:43:20;1.67;;;0.70;;
45338;SDS011;31071;51.478;5.710;2022-07-01T13:45:46;3.20;;;0.80;;
45338;SDS011;31071;51.478;5.710;2022-07-01T13:48:12;3.45;;;0.82;;
45338;SDS011;31071;51.478;5.710;2022-07-01T13:50:37;3.85;;;0.93;;
45338;SDS011;31071;51.478;5.710;2022-07-01T13:53:03;2.70;;;1.00;;
45338;SDS011;31071;51.478;5.710;2022-07-01T13:55:29;1.92;;;0.80;;
45338;SDS011;31071;51.478;5.710;2022-07-01T13:57:54;3.10;;;1.10;;
45338;SDS011;31071;51.478;5.710;2022-07-01T14:00:20;3.40;;;0.98;;
45338;SDS011;31071;51.478;5.710;2022-07-01T14:02:45;5.10;;;1.15;;
45338;SDS011;31071;51.478;5.710;2022-07-01T14:05:11;1.75;;;1.00;;
45338;SDS011;31071;51.478;5.710;2022-07-01T14:07:37;3.15;;;1.13;;
45338;SDS011;31071;51.478;5.710;2022-07-01T14:10:03;2.33;;;1.08;;
45338;SDS011;31071;51.478;5.710;2022-07-01T14:12:29;2.65;;;1.10;;
45338;SDS011;31071;51.478;5.710;2022-07-01T14:14:55;1.67;;;1.08;;
45338;SDS011;31071;51.478;5.710;2022-07-01T14:17:21;3.80;;;1.00;;
45338;SDS011;31071;51.478;5.710;2022-07-01T14:19:47;8.45;;;1.40;;
45338;SDS011;31071;51.478;5.710;2022-07-01T14:22:13;2.13;;;1.15;;
45338;SDS011;31071;51.478;5.710;2022-07-01T14:24:38;1.90;;;0.93;;
45338;SDS011;31071;51.478;5.710;2022-07-01T14:27:04;3.05;;;1.15;;
45338;SDS011;31071;51.478;5.710;2022-07-01T14:29:30;1.73;;;1.10;;
45338;SDS011;31071;51.478;5.710;2022-07-01T14:31:55;2.10;;;1.25;;
45338;SDS011;31071;51.478;5.710;2022-07-01T14:34:21;2.42;;;1.23;;
45338;SDS011;31071;51.478;5.710;2022-07-01T14:36:48;2.53;;;1.33;;
45338;SDS011;31071;51.478;5.710;2022-07-01T14:39:14;2.25;;;0.98;;
45338;SDS011;31071;51.478;5.710;2022-07-01T14:41:39;1.00;;;0.80;;
45338;SDS011;31071;51.478;5.710;2022-07-01T14:44:05;3.47;;;1.20;;
45338;SDS011;31071;51.478;5.710;2022-07-01T14:46:30;3.20;;;1.00;;
45338;SDS011;31071;51.478;5.710;2022-07-01T14:48:56;1.85;;;1.13;;
45338;SDS011;31071;51.478;5.710;2022-07-01T14:51:22;3.72;;;1.05;;
45338;SDS011;31071;51.478;5.710;2022-07-01T14:53:48;3.42;;;1.10;;
45338;SDS011;31071;51.478;5.710;2022-07-01T14:56:16;2.25;;;1.10;;
45338;SDS011;31071;51.478;5.710;2022-07-01T14:58:42;2.42;;;1.13;;
45338;SDS011;31071;51.478;5.710;2022-07-01T15:01:10;2.83;;;0.85;;
45338;SDS011;31071;51.478;5.710;2022-07-01T15:03:36;4.50;;;1.17;;
45338;SDS011;31071;51.478;5.710;2022-07-01T15:06:02;4.22;;;1.20;;
45338;SDS011;31071;51.478;5.710;2022-07-01T15:08:28;2.53;;;1.10;;
45338;SDS011;31071;51.478;5.710;2022-07-01T15:11:07;2.45;;;1.33;;
45338;SDS011;31071;51.478;5.710;2022-07-01T15:13:33;1.85;;;0.98;;